This is the latest recevied weather packets stored in our database for station/object KI5GCD-13. If no packets are shown the sender has not sent any weather packets the latest 10 day(s).
| Time | Temp. | Humidity | Pressure | Rain* | Wind** | Luminosity | Snow |
|---|---|---|---|---|---|---|---|
| 1777499387 | 17.22° C | 65% | 1012.1 hPa | 0 mm | 0.89 m/s, 280° | - | - |
| 1777499087 | 17.22° C | 65% | 1012.3 hPa | 0 mm | 0.45 m/s, 299° | - | - |
| 1777498787 | 17.22° C | 64% | 1012.2 hPa | 0 mm | 0.89 m/s, 71° | - | - |
| 1777498487 | 17.22° C | 64% | 1012.4 hPa | 0 mm | 1.34 m/s, 314° | - | - |
| 1777498187 | 17.22° C | 64% | 1012.2 hPa | 0 mm | 3.58 m/s, 63° | - | - |
| 1777497887 | 17.22° C | 62% | 1012.2 hPa | 0 mm | 2.24 m/s, 19° | - | - |
| 1777497587 | 17.22° C | 62% | 1012.4 hPa | 0 mm | 1.34 m/s, 77° | - | - |
| 1777497288 | 17.22° C | 61% | 1012.8 hPa | 0 mm | 1.34 m/s, 20° | - | - |
| 1777496988 | 17.78° C | 64% | 1012.9 hPa | 0 mm | 0.89 m/s, 288° | - | - |
| 1777496687 | 17.22° C | 62% | 1013 hPa | 0 mm | 0.45 m/s, 336° | - | - |
| 1777496387 | 17.78° C | 58% | 1012.9 hPa | 0 mm | 1.79 m/s, 14° | - | - |
| 1777496087 | 17.78° C | 59% | 1013 hPa | 0 mm | 1.79 m/s, 45° | - | - |
| 1777495787 | 18.33° C | 59% | 1013 hPa | 0 mm | 1.79 m/s, 60° | - | - |
| 1777495487 | 18.33° C | 60% | 1013.1 hPa | 0 mm | 1.34 m/s, 17° | - | - |
| 1777495187 | 17.78° C | 58% | 1013 hPa | 0 mm | 2.24 m/s, 44° | - | - |
| 1777494887 | 17.78° C | 60% | 1012.9 hPa | 0 mm | 1.34 m/s, 79° | - | - |
| 1777494587 | 18.33° C | 61% | 1013 hPa | 0 mm | 2.68 m/s, 20° | - | - |
| 1777494287 | 18.33° C | 60% | 1013 hPa | 0 mm | 0.89 m/s, 30° | - | - |
| 1777493987 | 18.33° C | 60% | 1013.2 hPa | 0 mm | 1.79 m/s, 58° | - | - |
| 1777493688 | 17.78° C | 62% | 1013.3 hPa | 0 mm | 1.79 m/s, 6° | - | - |
| 1777493387 | 17.78° C | 64% | 1013.3 hPa | 0 mm | 1.34 m/s, 299° | - | - |
| 1777493087 | 17.78° C | 61% | 1013.5 hPa | 0 mm | 1.79 m/s, 20° | - | - |
| 1777492787 | 18.33° C | 62% | 1013.4 hPa | 0 mm | 0.89 m/s, 86° | - | - |
| 1777492487 | 17.78° C | 61% | 1013.1 hPa | 0 mm | 2.68 m/s, 55° | - | - |
| 1777492187 | 17.78° C | 61% | 1013.6 hPa | 0 mm | 1.79 m/s, 59° | - | - |
* Rain latest hour (hover to see other rain measurements)
** Current wind speed in m/s (hover to see current wind gust speed)